sensor_id;sensor_type;location;lat;lon;timestamp;pressure;altitude;pressure_sealevel;temperature;humidity
11190;BME280;5651;50.926;4.718;2023-04-08T00:01:08;102120.38;;;8.83;92.87
11190;BME280;5651;50.926;4.718;2023-04-08T00:03:34;102121.22;;;8.82;92.56
11190;BME280;5651;50.926;4.718;2023-04-08T00:05:59;102124.69;;;8.82;92.48
11190;BME280;5651;50.926;4.718;2023-04-08T00:08:27;102119.44;;;8.81;92.37
11190;BME280;5651;50.926;4.718;2023-04-08T00:10:53;102122.06;;;8.81;92.69
11190;BME280;5651;50.926;4.718;2023-04-08T00:13:19;102122.06;;;8.81;93.43
11190;BME280;5651;50.926;4.718;2023-04-08T00:15:45;102119.44;;;8.79;93.32
11190;BME280;5651;50.926;4.718;2023-04-08T00:18:13;102110.72;;;8.79;93.82
11190;BME280;5651;50.926;4.718;2023-04-08T00:20:40;102116.81;;;8.79;93.28
11190;BME280;5651;50.926;4.718;2023-04-08T00:23:05;102119.38;;;8.78;92.99
11190;BME280;5651;50.926;4.718;2023-04-08T00:25:31;102117.66;;;8.78;93.37
11190;BME280;5651;50.926;4.718;2023-04-08T00:27:57;102121.94;;;8.76;93.56
11190;BME280;5651;50.926;4.718;2023-04-08T00:30:23;102123.69;;;8.77;93.29
11190;BME280;5651;50.926;4.718;2023-04-08T00:32:49;102118.47;;;8.76;93.79
11190;BME280;5651;50.926;4.718;2023-04-08T00:35:15;102119.34;;;8.76;93.77
11190;BME280;5651;50.926;4.718;2023-04-08T00:37:41;102119.31;;;8.75;94.44
11190;BME280;5651;50.926;4.718;2023-04-08T00:40:07;102122.78;;;8.75;94.64
11190;BME280;5651;50.926;4.718;2023-04-08T00:42:33;102127.09;;;8.75;93.96
11190;BME280;5651;50.926;4.718;2023-04-08T00:44:59;102134.00;;;8.74;93.51
11190;BME280;5651;50.926;4.718;2023-04-08T00:47:25;102134.00;;;8.74;94.75
11190;BME280;5651;50.926;4.718;2023-04-08T00:49:51;102130.53;;;8.74;94.97
11190;BME280;5651;50.926;4.718;2023-04-08T00:52:16;102136.59;;;8.74;95.36
11190;BME280;5651;50.926;4.718;2023-04-08T00:54:42;102134.84;;;8.73;95.58
11190;BME280;5651;50.926;4.718;2023-04-08T00:57:08;102132.22;;;8.71;95.82
11190;BME280;5651;50.926;4.718;2023-04-08T00:59:34;102136.56;;;8.71;95.93
11190;BME280;5651;50.926;4.718;2023-04-08T01:05:08;102137.38;;;8.70;95.09
11190;BME280;5651;50.926;4.718;2023-04-08T01:07:44;102127.00;;;8.70;95.10
11190;BME280;5651;50.926;4.718;2023-04-08T01:10:22;102139.09;;;8.69;94.46
11190;BME280;5651;50.926;4.718;2023-04-08T01:12:54;102142.59;;;8.70;94.01
11190;BME280;5651;50.926;4.718;2023-04-08T01:15:21;102137.38;;;8.68;95.12
11190;BME280;5651;50.926;4.718;2023-04-08T01:17:52;102140.00;;;8.70;94.37
11190;BME280;5651;50.926;4.718;2023-04-08T01:20:19;102141.66;;;8.68;94.34
11190;BME280;5651;50.926;4.718;2023-04-08T01:25:35;102145.19;;;8.70;94.64
11190;BME280;5651;50.926;4.718;2023-04-08T01:28:07;102142.59;;;8.70;94.59
11190;BME280;5651;50.926;4.718;2023-04-08T01:30:34;102142.59;;;8.70;94.97
11190;BME280;5651;50.926;4.718;2023-04-08T01:33:02;102145.19;;;8.70;94.91
11190;BME280;5651;50.926;4.718;2023-04-08T01:35:30;102138.22;;;8.69;94.69
11190;BME280;5651;50.926;4.718;2023-04-08T01:37:57;102138.22;;;8.69;94.93
11190;BME280;5651;50.926;4.718;2023-04-08T01:40:23;102146.88;;;8.69;94.55
11190;BME280;5651;50.926;4.718;2023-04-08T01:42:54;102136.47;;;8.68;95.21
11190;BME280;5651;50.926;4.718;2023-04-08T01:45:22;102142.50;;;8.67;95.49
11190;BME280;5651;50.926;4.718;2023-04-08T01:47:48;102139.91;;;8.67;95.94
11190;BME280;5651;50.926;4.718;2023-04-08T01:50:15;102142.47;;;8.65;95.93
11190;BME280;5651;50.926;4.718;2023-04-08T01:52:47;102145.06;;;8.65;96.61
11190;BME280;5651;50.926;4.718;2023-04-08T01:55:13;102138.13;;;8.64;95.67
11190;BME280;5651;50.926;4.718;2023-04-08T01:57:40;102146.78;;;8.65;96.27
11190;BME280;5651;50.926;4.718;2023-04-08T02:00:08;102144.16;;;8.65;96.26
11190;BME280;5651;50.926;4.718;2023-04-08T02:02:37;102143.31;;;8.64;96.10
11190;BME280;5651;50.926;4.718;2023-04-08T02:05:03;102143.28;;;8.63;96.62
11190;BME280;5651;50.926;4.718;2023-04-08T02:07:29;102147.59;;;8.62;96.03
11190;BME280;5651;50.926;4.718;2023-04-08T02:09:55;102145.81;;;8.61;96.29
11190;BME280;5651;50.926;4.718;2023-04-08T02:12:21;102147.56;;;8.61;97.15
11190;BME280;5651;50.926;4.718;2023-04-08T02:14:47;102137.06;;;8.57;96.31
11190;BME280;5651;50.926;4.718;2023-04-08T02:17:28;102138.84;;;8.59;96.90
11190;BME280;5651;50.926;4.718;2023-04-08T02:20:09;102139.66;;;8.57;96.49
11190;BME280;5651;50.926;4.718;2023-04-08T02:25:24;102144.88;;;8.57;96.76
11190;BME280;5651;50.926;4.718;2023-04-08T02:27:54;102146.59;;;8.57;96.43
11190;BME280;5651;50.926;4.718;2023-04-08T02:30:21;102139.66;;;8.57;96.59
11190;BME280;5651;50.926;4.718;2023-04-08T02:32:51;102150.06;;;8.57;97.47
11190;BME280;5651;50.926;4.718;2023-04-08T02:35:18;102150.03;;;8.56;96.61
11190;BME280;5651;50.926;4.718;2023-04-08T02:37:48;102146.56;;;8.55;97.01
11190;BME280;5651;50.926;4.718;2023-04-08T02:40:28;102147.41;;;8.54;96.85
11190;BME280;5651;50.926;4.718;2023-04-08T02:42:54;102152.59;;;8.54;96.53
11190;BME280;5651;50.926;4.718;2023-04-08T02:45:21;102155.19;;;8.54;96.54
11190;BME280;5651;50.926;4.718;2023-04-08T02:47:47;102161.25;;;8.55;96.40
11190;BME280;5651;50.926;4.718;2023-04-08T02:50:13;102160.41;;;8.54;96.31
11190;BME280;5651;50.926;4.718;2023-04-08T02:52:39;102162.06;;;8.52;95.69
11190;BME280;5651;50.926;4.718;2023-04-08T02:55:05;102159.50;;;8.54;95.67
11190;BME280;5651;50.926;4.718;2023-04-08T02:57:35;102162.09;;;8.54;94.67
11190;BME280;5651;50.926;4.718;2023-04-08T03:00:05;102166.47;;;8.55;96.17
11190;BME280;5651;50.926;4.718;2023-04-08T03:02:31;102166.47;;;8.55;96.00
11190;BME280;5651;50.926;4.718;2023-04-08T03:04:58;102163.81;;;8.53;96.46
11190;BME280;5651;50.926;4.718;2023-04-08T03:07:24;102165.59;;;8.54;96.14
11190;BME280;5651;50.926;4.718;2023-04-08T03:09:50;102163.81;;;8.53;96.55
11190;BME280;5651;50.926;4.718;2023-04-08T03:12:16;102163.00;;;8.54;96.08
11190;BME280;5651;50.926;4.718;2023-04-08T03:14:42;102162.09;;;8.54;97.06
11190;BME280;5651;50.926;4.718;2023-04-08T03:17:08;102162.09;;;8.54;98.43
11190;BME280;5651;50.926;4.718;2023-04-08T03:19:34;102162.09;;;8.54;97.97
11190;BME280;5651;50.926;4.718;2023-04-08T03:21:59;102160.31;;;8.51;99.06
11190;BME280;5651;50.926;4.718;2023-04-08T03:24:25;102165.50;;;8.51;98.25
11190;BME280;5651;50.926;4.718;2023-04-08T03:26:51;102159.44;;;8.51;98.66
11190;BME280;5651;50.926;4.718;2023-04-08T03:29:17;102159.41;;;8.49;99.39
11190;BME280;5651;50.926;4.718;2023-04-08T03:31:43;102167.19;;;8.49;99.01
11190;BME280;5651;50.926;4.718;2023-04-08T03:34:09;102164.59;;;8.49;97.99
11190;BME280;5651;50.926;4.718;2023-04-08T03:36:34;102168.03;;;8.48;97.79
11190;BME280;5651;50.926;4.718;2023-04-08T03:39:00;102162.00;;;8.49;97.95
11190;BME280;5651;50.926;4.718;2023-04-08T03:41:28;102174.13;;;8.50;98.85
11190;BME280;5651;50.926;4.718;2023-04-08T03:43:54;102174.13;;;8.50;99.32
11190;BME280;5651;50.926;4.718;2023-04-08T03:46:20;102170.69;;;8.51;98.57
11190;BME280;5651;50.926;4.718;2023-04-08T03:48:47;102178.50;;;8.51;97.98
11190;BME280;5651;50.926;4.718;2023-04-08T03:51:13;102175.03;;;8.51;98.43
11190;BME280;5651;50.926;4.718;2023-04-08T03:53:39;102177.66;;;8.52;100.00
11190;BME280;5651;50.926;4.718;2023-04-08T03:56:05;102177.63;;;8.51;100.00
11190;BME280;5651;50.926;4.718;2023-04-08T03:58:31;102186.28;;;8.51;99.86
11190;BME280;5651;50.926;4.718;2023-04-08T04:00:57;102185.41;;;8.51;99.76
11190;BME280;5651;50.926;4.718;2023-04-08T04:03:23;102192.38;;;8.52;99.14
11190;BME280;5651;50.926;4.718;2023-04-08T04:05:49;102188.00;;;8.51;99.02
11190;BME280;5651;50.926;4.718;2023-04-08T04:08:15;102188.00;;;8.51;99.77
11190;BME280;5651;50.926;4.718;2023-04-08T04:10:41;102178.56;;;8.53;100.00
11190;BME280;5651;50.926;4.718;2023-04-08T04:13:07;102184.53;;;8.50;100.00
11190;BME280;5651;50.926;4.718;2023-04-08T04:15:37;102184.53;;;8.50;100.00
11190;BME280;5651;50.926;4.718;2023-04-08T04:18:03;102190.63;;;8.51;100.00
11190;BME280;5651;50.926;4.718;2023-04-08T04:20:29;102186.22;;;8.48;100.00
11190;BME280;5651;50.926;4.718;2023-04-08T04:22:55;102190.53;;;8.48;100.00
11190;BME280;5651;50.926;4.718;2023-04-08T04:25:21;102194.00;;;8.48;100.00
11190;BME280;5651;50.926;4.718;2023-04-08T04:27:46;102192.25;;;8.47;100.00
11190;BME280;5651;50.926;4.718;2023-04-08T04:30:12;102194.00;;;8.48;100.00
11190;BME280;5651;50.926;4.718;2023-04-08T04:32:42;102193.94;;;8.47;100.00
11190;BME280;5651;50.926;4.718;2023-04-08T04:35:11;102197.44;;;8.47;100.00
11190;BME280;5651;50.926;4.718;2023-04-08T04:37:37;102200.84;;;8.46;99.95
11190;BME280;5651;50.926;4.718;2023-04-08T04:40:04;102205.25;;;8.47;99.84
11190;BME280;5651;50.926;4.718;2023-04-08T04:42:30;102204.41;;;8.48;100.00
11190;BME280;5651;50.926;4.718;2023-04-08T04:44:56;102207.84;;;8.47;100.00
11190;BME280;5651;50.926;4.718;2023-04-08T04:47:22;102206.94;;;8.47;100.00
11190;BME280;5651;50.926;4.718;2023-04-08T04:49:47;102218.22;;;8.47;100.00
11190;BME280;5651;50.926;4.718;2023-04-08T04:52:13;102214.72;;;8.47;100.00
11190;BME280;5651;50.926;4.718;2023-04-08T04:54:39;102212.13;;;8.47;100.00
11190;BME280;5651;50.926;4.718;2023-04-08T04:57:05;102216.50;;;8.48;100.00
11190;BME280;5651;50.926;4.718;2023-04-08T04:59:31;102212.13;;;8.47;99.73
11190;BME280;5651;50.926;4.718;2023-04-08T05:01:57;102217.41;;;8.48;100.00
11190;BME280;5651;50.926;4.718;2023-04-08T05:04:23;102218.16;;;8.46;100.00
11190;BME280;5651;50.926;4.718;2023-04-08T05:06:49;102226.94;;;8.49;100.00
11190;BME280;5651;50.926;4.718;2023-04-08T05:09:15;102219.16;;;8.49;100.00
11190;BME280;5651;50.926;4.718;2023-04-08T05:11:41;102218.25;;;8.49;100.00
11190;BME280;5651;50.926;4.718;2023-04-08T05:14:07;102213.97;;;8.49;100.00
11190;BME280;5651;50.926;4.718;2023-04-08T05:16:33;102216.59;;;8.51;100.00
11190;BME280;5651;50.926;4.718;2023-04-08T05:18:59;102207.88;;;8.49;100.00
11190;BME280;5651;50.926;4.718;2023-04-08T05:21:25;102219.16;;;8.49;97.59
11190;BME280;5651;50.926;4.718;2023-04-08T05:23:52;102215.75;;;8.52;100.00
11190;BME280;5651;50.926;4.718;2023-04-08T05:26:19;102219.19;;;8.51;100.00
11190;BME280;5651;50.926;4.718;2023-04-08T05:28:47;102215.75;;;8.52;100.00
11190;BME280;5651;50.926;4.718;2023-04-08T05:31:19;102217.47;;;8.51;100.00
11190;BME280;5651;50.926;4.718;2023-04-08T05:33:45;102216.63;;;8.52;100.00
11190;BME280;5651;50.926;4.718;2023-04-08T05:36:11;102212.25;;;8.51;100.00
11190;BME280;5651;50.926;4.718;2023-04-08T05:38:38;102210.59;;;8.53;100.00
11190;BME280;5651;50.926;4.718;2023-04-08T05:41:04;102221.94;;;8.57;100.00
11190;BME280;5651;50.926;4.718;2023-04-08T05:43:32;102215.00;;;8.57;100.00
11190;BME280;5651;50.926;4.718;2023-04-08T05:45:58;102219.38;;;8.59;100.00
11190;BME280;5651;50.926;4.718;2023-04-08T05:48:23;102227.16;;;8.59;100.00
11190;BME280;5651;50.926;4.718;2023-04-08T05:50:50;102223.81;;;8.63;100.00
11190;BME280;5651;50.926;4.718;2023-04-08T05:53:15;102218.69;;;8.66;100.00
11190;BME280;5651;50.926;4.718;2023-04-08T05:55:41;102219.91;;;8.80;100.00
11190;BME280;5651;50.926;4.718;2023-04-08T05:58:07;102225.13;;;8.80;98.29
11190;BME280;5651;50.926;4.718;2023-04-08T06:00:33;102234.75;;;8.83;100.00
11190;BME280;5651;50.926;4.718;2023-04-08T06:02:59;102241.63;;;8.82;100.00
11190;BME280;5651;50.926;4.718;2023-04-08T06:05:25;102235.59;;;8.83;100.00
11190;BME280;5651;50.926;4.718;2023-04-08T06:07:51;102236.53;;;8.85;100.00
11190;BME280;5651;50.926;4.718;2023-04-08T06:10:17;102239.19;;;8.88;100.00
11190;BME280;5651;50.926;4.718;2023-04-08T06:12:42;102244.50;;;8.93;100.00
11190;BME280;5651;50.926;4.718;2023-04-08T06:15:09;102252.38;;;8.96;100.00
11190;BME280;5651;50.926;4.718;2023-04-08T06:17:35;102255.09;;;9.01;100.00
11190;BME280;5651;50.926;4.718;2023-04-08T06:20:02;102261.25;;;9.04;100.00
11190;BME280;5651;50.926;4.718;2023-04-08T06:22:28;102263.16;;;9.12;100.00
11190;BME280;5651;50.926;4.718;2023-04-08T06:24:54;102260.72;;;9.18;100.00
11190;BME280;5651;50.926;4.718;2023-04-08T06:27:20;102266.91;;;9.23;100.00
11190;BME280;5651;50.926;4.718;2023-04-08T06:29:46;102273.03;;;9.25;100.00
11190;BME280;5651;50.926;4.718;2023-04-08T06:32:12;102276.66;;;9.32;100.00
11190;BME280;5651;50.926;4.718;2023-04-08T06:34:38;102275.91;;;9.38;100.00
11190;BME280;5651;50.926;4.718;2023-04-08T06:37:05;102279.63;;;9.47;100.00
11190;BME280;5651;50.926;4.718;2023-04-08T06:39:32;102283.09;;;9.48;100.00
11190;BME280;5651;50.926;4.718;2023-04-08T06:41:57;102284.06;;;9.53;100.00
11190;BME280;5651;50.926;4.718;2023-04-08T06:44:23;102289.47;;;9.61;100.00
11190;BME280;5651;50.926;4.718;2023-04-08T06:46:49;102290.41;;;9.64;100.00
11190;BME280;5651;50.926;4.718;2023-04-08T06:49:15;102291.34;;;9.66;100.00
11190;BME280;5651;50.926;4.718;2023-04-08T06:51:41;102290.56;;;9.72;100.00
11190;BME280;5651;50.926;4.718;2023-04-08T06:54:07;102286.19;;;9.70;100.00
11190;BME280;5651;50.926;4.718;2023-04-08T06:56:35;102291.50;;;9.76;100.00
11190;BME280;5651;50.926;4.718;2023-04-08T06:59:01;102289.75;;;9.75;100.00
11190;BME280;5651;50.926;4.718;2023-04-08T07:01:29;102292.53;;;9.81;100.00
11190;BME280;5651;50.926;4.718;2023-04-08T07:03:56;102287.34;;;9.82;100.00
11190;BME280;5651;50.926;4.718;2023-04-08T07:06:22;102303.03;;;9.86;100.00
11190;BME280;5651;50.926;4.718;2023-04-08T07:08:48;102304.13;;;9.95;100.00
11190;BME280;5651;50.926;4.718;2023-04-08T07:11:14;102305.00;;;9.97;100.00
11190;BME280;5651;50.926;4.718;2023-04-08T07:13:41;102309.50;;;10.05;100.00
11190;BME280;5651;50.926;4.718;2023-04-08T07:16:07;102310.53;;;10.13;100.00
11190;BME280;5651;50.926;4.718;2023-04-08T07:18:33;102313.22;;;10.16;100.00
11190;BME280;5651;50.926;4.718;2023-04-08T07:20:59;102314.13;;;10.18;100.00
11190;BME280;5651;50.926;4.718;2023-04-08T07:23:25;102313.31;;;10.21;100.00
11190;BME280;5651;50.926;4.718;2023-04-08T07:25:52;102317.81;;;10.28;100.00
11190;BME280;5651;50.926;4.718;2023-04-08T07:28:21;102328.22;;;10.28;100.00
11190;BME280;5651;50.926;4.718;2023-04-08T07:30:47;102322.28;;;10.35;100.00
11190;BME280;5651;50.926;4.718;2023-04-08T07:33:13;102328.31;;;10.33;100.00
11190;BME280;5651;50.926;4.718;2023-04-08T07:35:40;102325.84;;;10.37;100.00
11190;BME280;5651;50.926;4.718;2023-04-08T07:38:06;102332.66;;;10.32;100.00
11190;BME280;5651;50.926;4.718;2023-04-08T07:40:36;102328.31;;;10.33;100.00
11190;BME280;5651;50.926;4.718;2023-04-08T07:43:01;102335.56;;;10.46;100.00
11190;BME280;5651;50.926;4.718;2023-04-08T07:45:27;102331.41;;;10.54;100.00
11190;BME280;5651;50.926;4.718;2023-04-08T07:47:53;102337.56;;;10.59;100.00
11190;BME280;5651;50.926;4.718;2023-04-08T07:50:19;102335.28;;;10.76;100.00
11190;BME280;5651;50.926;4.718;2023-04-08T07:52:45;102337.19;;;10.84;100.00
11190;BME280;5651;50.926;4.718;2023-04-08T07:55:11;102341.50;;;10.85;100.00
11190;BME280;5651;50.926;4.718;2023-04-08T07:57:36;102349.41;;;10.88;100.00
11190;BME280;5651;50.926;4.718;2023-04-08T08:00:02;102348.66;;;10.93;100.00
11190;BME280;5651;50.926;4.718;2023-04-08T08:02:29;102353.16;;;11.04;100.00
11190;BME280;5651;50.926;4.718;2023-04-08T08:04:55;102352.41;;;11.09;100.00
11190;BME280;5651;50.926;4.718;2023-04-08T08:07:21;102353.34;;;11.13;100.00
11190;BME280;5651;50.926;4.718;2023-04-08T08:09:47;102356.84;;;11.14;100.00
11190;BME280;5651;50.926;4.718;2023-04-08T08:12:12;102355.28;;;11.26;100.00
11190;BME280;5651;50.926;4.718;2023-04-08T08:14:38;102359.88;;;11.40;100.00
11190;BME280;5651;50.926;4.718;2023-04-08T08:17:04;102359.06;;;11.43;100.00
11190;BME280;5651;50.926;4.718;2023-04-08T08:19:29;102360.84;;;11.47;100.00
11190;BME280;5651;50.926;4.718;2023-04-08T08:21:55;102363.59;;;11.54;100.00
11190;BME280;5651;50.926;4.718;2023-04-08T08:24:21;102368.75;;;11.51;100.00
11190;BME280;5651;50.926;4.718;2023-04-08T08:26:47;102364.47;;;11.55;100.00
11190;BME280;5651;50.926;4.718;2023-04-08T08:29:14;102375.06;;;11.64;100.00
11190;BME280;5651;50.926;4.718;2023-04-08T08:31:40;102369.88;;;11.67;100.00
11190;BME280;5651;50.926;4.718;2023-04-08T08:34:06;102375.06;;;11.66;100.00
11190;BME280;5651;50.926;4.718;2023-04-08T08:36:31;102380.31;;;11.67;100.00
11190;BME280;5651;50.926;4.718;2023-04-08T08:38:57;102378.69;;;11.72;100.00
11190;BME280;5651;50.926;4.718;2023-04-08T08:41:23;102379.63;;;11.79;100.00
11190;BME280;5651;50.926;4.718;2023-04-08T08:43:49;102384.91;;;11.81;100.00
11190;BME280;5651;50.926;4.718;2023-04-08T08:46:16;102379.75;;;11.87;100.00
11190;BME280;5651;50.926;4.718;2023-04-08T08:48:43;102382.47;;;11.93;100.00
11190;BME280;5651;50.926;4.718;2023-04-08T08:51:09;102379.97;;;11.99;100.00
11190;BME280;5651;50.926;4.718;2023-04-08T08:53:36;102386.94;;;12.00;100.00
11190;BME280;5651;50.926;4.718;2023-04-08T08:56:03;102387.78;;;11.99;100.00
11190;BME280;5651;50.926;4.718;2023-04-08T08:58:28;102382.94;;;12.26;97.62
11190;BME280;5651;50.926;4.718;2023-04-08T09:00:54;102385.81;;;12.46;94.78
11190;BME280;5651;50.926;4.718;2023-04-08T09:03:25;102380.41;;;12.32;95.64
11190;BME280;5651;50.926;4.718;2023-04-08T09:05:59;102388.31;;;12.36;97.74
11190;BME280;5651;50.926;4.718;2023-04-08T09:08:33;102375.84;;;12.15;95.54
11190;BME280;5651;50.926;4.718;2023-04-08T09:11:18;102368.97;;;12.24;95.99
11190;BME280;5651;50.926;4.718;2023-04-08T09:13:45;102381.16;;;12.23;96.17
11190;BME280;5651;50.926;4.718;2023-04-08T09:16:15;102377.97;;;12.44;94.86
11190;BME280;5651;50.926;4.718;2023-04-08T09:18:46;102375.34;;;12.46;95.74
11190;BME280;5651;50.926;4.718;2023-04-08T09:21:14;102379.81;;;12.55;95.21
11190;BME280;5651;50.926;4.718;2023-04-08T09:23:46;102386.78;;;12.52;95.16
11190;BME280;5651;50.926;4.718;2023-04-08T09:29:06;102380.84;;;12.67;93.57
11190;BME280;5651;50.926;4.718;2023-04-08T09:31:37;102383.69;;;12.88;93.80
11190;BME280;5651;50.926;4.718;2023-04-08T09:34:13;102374.91;;;12.82;92.91
11190;BME280;5651;50.926;4.718;2023-04-08T09:36:41;102377.53;;;12.82;93.43
11190;BME280;5651;50.926;4.718;2023-04-08T09:39:07;102384.53;;;12.85;93.80
11190;BME280;5651;50.926;4.718;2023-04-08T09:41:34;102372.34;;;12.87;93.48
11190;BME280;5651;50.926;4.718;2023-04-08T09:44:03;102373.28;;;12.95;93.67
11190;BME280;5651;50.926;4.718;2023-04-08T09:55:04;102380.31;;;12.99;91.17
11190;BME280;5651;50.926;4.718;2023-04-08T09:57:39;102377.69;;;12.98;91.10
11190;BME280;5651;50.926;4.718;2023-04-08T10:02:44;102380.34;;;13.03;91.46
11190;BME280;5651;50.926;4.718;2023-04-08T10:05:12;102382.19;;;13.14;92.63
11190;BME280;5651;50.926;4.718;2023-04-08T10:07:40;102376.13;;;13.19;91.94
11190;BME280;5651;50.926;4.718;2023-04-08T10:10:07;102376.19;;;13.22;91.57
11190;BME280;5651;50.926;4.718;2023-04-08T10:12:36;102379.50;;;13.08;89.52
11190;BME280;5651;50.926;4.718;2023-04-08T10:15:27;102376.03;;;13.08;90.21
11190;BME280;5651;50.926;4.718;2023-04-08T10:17:55;102385.66;;;13.12;91.33
11190;BME280;5651;50.926;4.718;2023-04-08T10:20:44;102379.41;;;12.97;90.85
11190;BME280;5651;50.926;4.718;2023-04-08T10:23:13;102379.47;;;13.00;91.31
11190;BME280;5651;50.926;4.718;2023-04-08T10:25:43;102375.97;;;13.02;91.04
11190;BME280;5651;50.926;4.718;2023-04-08T10:30:43;102385.69;;;13.15;90.30
11190;BME280;5651;50.926;4.718;2023-04-08T10:33:15;102385.69;;;13.16;90.03
11190;BME280;5651;50.926;4.718;2023-04-08T10:35:58;102383.13;;;13.21;89.85
11190;BME280;5651;50.926;4.718;2023-04-08T10:38:24;102380.78;;;13.49;89.75
11190;BME280;5651;50.926;4.718;2023-04-08T10:40:50;102375.50;;;13.44;89.26
11190;BME280;5651;50.926;4.718;2023-04-08T10:43:17;102369.56;;;13.67;88.96
11190;BME280;5651;50.926;4.718;2023-04-08T10:45:43;102366.94;;;13.66;88.56
11190;BME280;5651;50.926;4.718;2023-04-08T10:48:21;102371.53;;;13.96;87.13
11190;BME280;5651;50.926;4.718;2023-04-08T10:53:29;102362.00;;;14.12;87.86
11190;BME280;5651;50.926;4.718;2023-04-08T10:58:34;102363.88;;;14.42;87.37
11190;BME280;5651;50.926;4.718;2023-04-08T11:01:05;102364.75;;;14.45;86.39
11190;BME280;5651;50.926;4.718;2023-04-08T11:03:32;102357.78;;;14.51;86.51
11190;BME280;5651;50.926;4.718;2023-04-08T11:05:59;102368.28;;;14.51;85.29
11190;BME280;5651;50.926;4.718;2023-04-08T11:08:29;102369.16;;;14.56;84.80
11190;BME280;5651;50.926;4.718;2023-04-08T11:10:55;102370.13;;;14.68;84.96
11190;BME280;5651;50.926;4.718;2023-04-08T11:13:22;102367.50;;;14.76;85.28
11190;BME280;5651;50.926;4.718;2023-04-08T11:15:49;102357.00;;;14.82;84.26
11190;BME280;5651;50.926;4.718;2023-04-08T11:18:15;102358.78;;;14.89;82.58
11190;BME280;5651;50.926;4.718;2023-04-08T11:20:43;102350.06;;;14.95;82.76
11190;BME280;5651;50.926;4.718;2023-04-08T11:23:12;102349.19;;;15.00;82.51
11190;BME280;5651;50.926;4.718;2023-04-08T11:25:40;102356.16;;;14.94;81.56
11190;BME280;5651;50.926;4.718;2023-04-08T11:28:07;102343.03;;;15.00;82.53
11190;BME280;5651;50.926;4.718;2023-04-08T11:30:33;102354.44;;;15.00;82.08
11190;BME280;5651;50.926;4.718;2023-04-08T11:32:59;102350.94;;;15.04;81.09
11190;BME280;5651;50.926;4.718;2023-04-08T11:35:29;102347.41;;;14.78;78.97
11190;BME280;5651;50.926;4.718;2023-04-08T11:37:56;102353.53;;;14.89;80.45
11190;BME280;5651;50.926;4.718;2023-04-08T11:40:23;102351.78;;;14.93;81.10
11190;BME280;5651;50.926;4.718;2023-04-08T11:42:50;102356.16;;;14.80;79.35
11190;BME280;5651;50.926;4.718;2023-04-08T11:45:18;102354.38;;;14.74;79.72
11190;BME280;5651;50.926;4.718;2023-04-08T11:47:44;102351.69;;;14.62;79.31
11190;BME280;5651;50.926;4.718;2023-04-08T11:50:11;102354.38;;;14.69;79.77
11190;BME280;5651;50.926;4.718;2023-04-08T11:52:45;102353.50;;;14.73;80.23
11190;BME280;5651;50.926;4.718;2023-04-08T11:55:27;102347.38;;;14.74;79.13
11190;BME280;5651;50.926;4.718;2023-04-08T11:57:54;102357.63;;;14.16;75.75
11190;BME280;5651;50.926;4.718;2023-04-08T12:00:21;102356.03;;;14.44;77.87
11190;BME280;5651;50.926;4.718;2023-04-08T12:02:48;102358.69;;;14.63;79.47
11190;BME280;5651;50.926;4.718;2023-04-08T12:05:14;102354.38;;;14.77;78.08
11190;BME280;5651;50.926;4.718;2023-04-08T12:07:41;102351.81;;;15.08;80.46
11190;BME280;5651;50.926;4.718;2023-04-08T12:10:08;102347.44;;;15.49;82.00
11190;BME280;5651;50.926;4.718;2023-04-08T12:12:34;102347.38;;;15.95;83.52
11190;BME280;5651;50.926;4.718;2023-04-08T12:15:00;102344.63;;;16.31;79.08
11190;BME280;5651;50.926;4.718;2023-04-08T12:17:26;102341.69;;;16.85;80.83
11190;BME280;5651;50.926;4.718;2023-04-08T12:19:52;102346.03;;;16.99;78.62
11190;BME280;5651;50.926;4.718;2023-04-08T12:22:18;102341.72;;;16.82;74.48
11190;BME280;5651;50.926;4.718;2023-04-08T12:24:44;102346.91;;;16.96;74.05
11190;BME280;5651;50.926;4.718;2023-04-08T12:27:10;102345.97;;;17.06;75.18
11190;BME280;5651;50.926;4.718;2023-04-08T12:29:36;102341.03;;;16.52;70.95
11190;BME280;5651;50.926;4.718;2023-04-08T12:32:02;102343.66;;;16.52;73.37
11190;BME280;5651;50.926;4.718;2023-04-08T12:34:29;102335.06;;;16.18;73.59
11190;BME280;5651;50.926;4.718;2023-04-08T12:36:54;102339.47;;;16.12;74.24
11190;BME280;5651;50.926;4.718;2023-04-08T12:39:20;102343.06;;;15.60;71.39
11190;BME280;5651;50.926;4.718;2023-04-08T12:41:46;102334.28;;;15.66;72.99
11190;BME280;5651;50.926;4.718;2023-04-08T12:44:12;102338.66;;;15.61;72.77
11190;BME280;5651;50.926;4.718;2023-04-08T12:46:38;102329.00;;;15.74;74.57
11190;BME280;5651;50.926;4.718;2023-04-08T12:49:04;102333.41;;;15.84;74.96
11190;BME280;5651;50.926;4.718;2023-04-08T12:51:30;102319.25;;;16.19;75.66
11190;BME280;5651;50.926;4.718;2023-04-08T12:53:56;102325.19;;;16.60;73.22
11190;BME280;5651;50.926;4.718;2023-04-08T12:56:22;102318.56;;;17.29;73.78
11190;BME280;5651;50.926;4.718;2023-04-08T12:58:48;102319.34;;;17.39;66.55
11190;BME280;5651;50.926;4.718;2023-04-08T13:01:14;102319.53;;;18.06;71.12
11190;BME280;5651;50.926;4.718;2023-04-08T13:03:39;102321.28;;;18.09;68.80
11190;BME280;5651;50.926;4.718;2023-04-08T13:06:06;102319.22;;;18.31;69.16
11190;BME280;5651;50.926;4.718;2023-04-08T13:08:32;102323.66;;;18.29;69.28
11190;BME280;5651;50.926;4.718;2023-04-08T13:10:58;102326.06;;;17.71;64.50
11190;BME280;5651;50.926;4.718;2023-04-08T13:13:24;102325.25;;;17.66;67.53
11190;BME280;5651;50.926;4.718;2023-04-08T13:15:51;102319.72;;;17.89;67.51
11190;BME280;5651;50.926;4.718;2023-04-08T13:18:17;102320.34;;;18.13;69.58
11190;BME280;5651;50.926;4.718;2023-04-08T13:20:43;102311.72;;;18.65;69.23
11190;BME280;5651;50.926;4.718;2023-04-08T13:23:08;102301.28;;;19.15;67.97
11190;BME280;5651;50.926;4.718;2023-04-08T13:25:34;102302.31;;;19.55;64.01
11190;BME280;5651;50.926;4.718;2023-04-08T13:28:00;102302.53;;;20.32;65.93
11190;BME280;5651;50.926;4.718;2023-04-08T13:30:26;102297.09;;;20.79;63.47
11190;BME280;5651;50.926;4.718;2023-04-08T13:32:51;102299.09;;;21.05;61.84